Time;durP1;ratioP1;P1;durP2;ratioP2;P2;SDS_P1;SDS_P2;PMS_P1;PMS_P2;Temp;Humidity;BMP_temperature;BMP_pressure;BME280_temperature;BME280_humidity;BME280_pressure;Samples;Min_cycle;Max_cycle;Signal;HPM_P1;HPM_P2
2021/04/09 00:00:05;;;;;;;13.37;6.50;;;;;;;-0.61;92.12;96671.19;5056039;28;20219;-73
2021/04/09 00:02:31;;;;;;;11.13;5.70;;;;;;;-0.65;92.27;96664.53;5058578;28;20201;-71
2021/04/09 00:04:57;;;;;;;13.17;5.90;;;;;;;-0.65;91.55;96661.94;5058579;28;20513;-72
2021/04/09 00:07:23;;;;;;;16.17;6.40;;;;;;;-0.67;91.40;96660.44;5057802;28;20772;-70
2021/04/09 00:09:49;;;;;;;14.70;6.00;;;;;;;-0.59;91.32;96656.38;5058019;28;20584;-73
2021/04/09 00:12:15;;;;;;;13.53;6.10;;;;;;;-0.53;91.45;96653.41;5057668;28;20236;-69
2021/04/09 00:14:41;;;;;;;12.10;5.90;;;;;;;-0.58;91.42;96650.28;5057698;28;20209;-68
2021/04/09 00:17:08;;;;;;;12.67;6.20;;;;;;;-0.57;91.14;96651.97;5057263;28;20681;-69
2021/04/09 00:19:34;;;;;;;15.87;6.03;;;;;;;-0.56;91.05;96653.59;5058233;28;20205;-72
2021/04/09 00:22:00;;;;;;;12.57;6.33;;;;;;;-0.56;90.78;96653.59;5057771;28;20286;-72
2021/04/09 00:24:27;;;;;;;12.13;5.67;;;;;;;-0.59;89.09;96651.22;5058512;28;20201;-69
2021/04/09 00:26:54;;;;;;;14.13;6.03;;;;;;;-0.68;88.88;96649.22;5056170;28;20225;-67
2021/04/09 00:29:20;;;;;;;12.33;6.33;;;;;;;-0.66;89.37;96647.38;5057723;28;20443;-71
2021/04/09 00:31:46;;;;;;;17.20;7.37;;;;;;;-0.69;91.21;96641.56;5058678;28;20224;-70
2021/04/09 00:34:13;;;;;;;15.47;6.90;;;;;;;-0.72;92.51;96647.78;5057630;28;20250;-70
2021/04/09 00:36:39;;;;;;;16.63;6.17;;;;;;;-0.93;91.96;96643.16;5057185;28;20228;-68
2021/04/09 00:39:08;;;;;;;13.00;6.23;;;;;;;-0.86;90.82;96639.25;5058686;28;20196;-68
2021/04/09 00:41:37;;;;;;;12.37;6.40;;;;;;;-0.82;90.64;96630.38;5057490;28;20203;-68
2021/04/09 00:44:05;;;;;;;13.50;6.23;;;;;;;-0.78;91.13;96632.63;5057584;28;20211;-69
2021/04/09 00:46:31;;;;;;;14.80;6.90;;;;;;;-0.89;91.82;96635.09;5057472;28;20228;-69
2021/04/09 00:48:57;;;;;;;14.67;6.77;;;;;;;-0.94;92.33;96629.41;5057214;28;21020;-71
2021/04/09 00:51:23;;;;;;;14.30;6.90;;;;;;;-0.92;92.89;96634.47;5057689;28;20259;-68
2021/04/09 00:53:50;;;;;;;13.40;6.33;;;;;;;-0.84;91.44;96630.47;5057312;28;20261;-70
2021/04/09 00:56:20;;;;;;;11.83;6.13;;;;;;;-0.79;89.23;96633.59;5056252;28;20220;-72
2021/04/09 00:58:46;;;;;;;14.70;7.07;;;;;;;-0.74;89.18;96628.91;5056272;28;20197;-74
2021/04/09 01:01:13;;;;;;;12.73;6.90;;;;;;;-0.78;90.75;96632.63;5056098;28;20204;-72
2021/04/09 01:03:39;;;;;;;11.90;6.73;;;;;;;-0.80;90.73;96631.94;5056762;28;20196;-69
2021/04/09 01:06:05;;;;;;;17.70;6.87;;;;;;;-0.86;90.47;96629.72;5055267;28;20608;-70
2021/04/09 01:08:32;;;;;;;11.50;6.47;;;;;;;-0.79;90.39;96625.81;5056711;28;20266;-68
2021/04/09 01:10:58;;;;;;;13.73;6.80;;;;;;;-0.76;90.08;96624.78;5056985;28;20266;-73
2021/04/09 01:13:25;;;;;;;14.57;7.20;;;;;;;-0.85;90.72;96618.47;5056089;28;20264;-72
2021/04/09 01:15:51;;;;;;;19.07;6.33;;;;;;;-0.81;88.85;96626.84;5055574;28;20228;-72
2021/04/09 01:18:24;;;;;;;11.37;5.93;;;;;;;-0.79;89.64;96619.81;5057408;28;20202;-70
2021/04/09 01:20:59;;;;;;;13.57;6.97;;;;;;;-0.84;90.35;96614.94;5057054;28;20196;-73
2021/04/09 01:23:55;;;;;;;15.43;6.53;;;;;;;-0.93;91.39;96609.53;5055950;28;20218;-69
2021/04/09 01:27:01;;;;;;;13.40;6.23;;;;;;;-0.94;91.72;96610.44;5042507;28;20575;-69
2021/04/09 01:29:44;;;;;;;14.73;6.67;;;;;;;-0.85;91.43;96600.34;5057092;28;20210;-73
2021/04/09 01:32:12;;;;;;;11.53;6.17;;;;;;;-0.86;89.08;96598.69;5056659;28;20298;-70
2021/04/09 01:34:42;;;;;;;10.90;6.20;;;;;;;-0.89;90.00;96598.03;5056288;28;20200;-69
2021/04/09 01:37:12;;;;;;;13.13;6.50;;;;;;;-0.93;90.76;96591.41;5056133;28;20204;-69
2021/04/09 01:39:41;;;;;;;13.53;6.37;;;;;;;-0.92;90.62;96593.91;5056347;28;20204;-72
2021/04/09 01:42:11;;;;;;;12.00;6.43;;;;;;;-0.94;88.66;96592.34;5056430;28;20662;-71
2021/04/09 01:44:41;;;;;;;10.83;6.23;;;;;;;-0.97;89.38;96596.00;5056183;28;20204;-71
2021/04/09 01:47:08;;;;;;;16.47;7.50;;;;;;;-0.92;90.68;96595.66;5055433;28;20200;-69
2021/04/09 01:49:37;;;;;;;15.40;6.20;;;;;;;-0.96;90.56;96586.47;5056383;28;20455;-68
2021/04/09 01:52:07;;;;;;;13.67;6.70;;;;;;;-1.07;91.15;96589.75;5057363;28;20600;-71
2021/04/09 01:54:34;;;;;;;14.37;6.50;;;;;;;-1.34;92.82;96585.50;5055679;28;20204;-73
2021/04/09 01:57:01;;;;;;;16.93;7.33;;;;;;;-1.20;92.44;96586.28;5055171;28;20208;-69
2021/04/09 01:59:29;;;;;;;17.00;7.03;;;;;;;-1.17;91.32;96582.69;5055953;28;20204;-71
2021/04/09 02:01:56;;;;;;;14.30;7.03;;;;;;;-1.10;91.84;96589.91;5056347;28;20200;-70
2021/04/09 02:04:23;;;;;;;14.90;6.90;;;;;;;-1.11;92.08;96583.13;5056115;28;20200;-74
2021/04/09 02:06:52;;;;;;;16.17;7.47;;;;;;;-1.41;92.30;96581.66;5051826;28;21298;-71
2021/04/09 02:09:18;;;;;;;14.83;6.90;;;;;;;-1.45;93.54;96577.63;5056320;28;20211;-68
2021/04/09 02:11:44;;;;;;;13.47;6.73;;;;;;;-1.45;92.75;96579.34;5055684;28;20366;-72
2021/04/09 02:14:12;;;;;;;13.80;7.30;;;;;;;-1.47;92.35;96576.88;5056417;28;20208;-73
2021/04/09 02:16:38;;;;;;;15.87;6.80;;;;;;;-1.48;92.61;96574.38;5055136;28;20221;-70
2021/04/09 02:19:05;;;;;;;13.13;6.27;;;;;;;-1.47;92.24;96578.63;5055979;28;20236;-72
2021/04/09 02:21:32;;;;;;;13.90;6.40;;;;;;;-1.33;90.58;96571.66;5056721;28;20223;-73
2021/04/09 02:24:00;;;;;;;12.37;6.07;;;;;;;-1.26;90.24;96566.91;5056404;28;20261;-71
2021/04/09 02:26:26;;;;;;;16.33;6.43;;;;;;;-1.43;91.69;96570.56;5054551;28;21022;-69
2021/04/09 02:28:53;;;;;;;18.23;6.77;;;;;;;-1.45;92.86;96575.03;5055698;28;20201;-69
2021/04/09 02:31:19;;;;;;;12.93;6.80;;;;;;;-1.45;93.53;96571.59;5055862;28;20724;-69
2021/04/09 02:33:45;;;;;;;14.80;6.20;;;;;;;-1.36;92.91;96576.19;5056319;28;20201;-72
2021/04/09 02:36:13;;;;;;;12.00;6.50;;;;;;;-1.44;92.34;96575.84;5054998;28;20245;-69
2021/04/09 02:38:42;;;;;;;11.27;6.07;;;;;;;-1.70;93.04;96569.72;5056098;28;20204;-72
2021/04/09 02:41:11;;;;;;;17.43;6.77;;;;;;;-1.82;94.19;96572.22;5056024;28;20394;-71
2021/04/09 02:43:37;;;;;;;11.90;6.37;;;;;;;-1.80;95.00;96571.22;5055845;28;20493;-73
2021/04/09 02:46:06;;;;;;;11.93;6.20;;;;;;;-1.72;92.34;96571.59;5054822;28;20221;-69
2021/04/09 02:48:37;;;;;;;11.90;6.40;;;;;;;-1.61;92.19;96570.91;5056159;28;20557;-68
2021/04/09 02:51:08;;;;;;;14.13;6.10;;;;;;;-1.58;92.24;96565.56;5055638;28;20251;-70
2021/04/09 02:53:38;;;;;;;16.33;6.93;;;;;;;-1.62;91.92;96564.91;5056508;28;20204;-69
2021/04/09 02:56:06;;;;;;;12.90;6.83;;;;;;;-1.73;92.33;96567.34;5054720;28;20220;-69
2021/04/09 02:58:35;;;;;;;13.23;6.63;;;;;;;-1.73;93.51;96562.19;5055209;28;20511;-69
2021/04/09 03:01:01;;;;;;;14.43;6.37;;;;;;;-1.82;94.41;96559.31;5055590;28;20207;-70
2021/04/09 03:03:29;;;;;;;12.73;6.90;;;;;;;-1.72;93.98;96563.00;5056409;28;21143;-71
2021/04/09 03:05:55;;;;;;;13.03;6.77;;;;;;;-1.85;96.03;96561.28;5055104;28;20228;-71
2021/04/09 03:08:21;;;;;;;16.13;6.67;;;;;;;-1.80;96.92;96554.91;5055547;28;20215;-69
2021/04/09 03:10:48;;;;;;;10.77;6.17;;;;;;;-1.70;93.91;96550.81;5053227;28;20235;-72
2021/04/09 03:13:15;;;;;;;13.10;6.37;;;;;;;-1.63;93.33;96552.94;5054909;28;20216;-70
2021/04/09 03:15:44;;;;;;;9.23;5.73;;;;;;;-1.65;93.51;96546.22;5054614;28;20228;-69
2021/04/09 03:18:12;;;;;;;11.97;6.40;;;;;;;-1.64;93.57;96545.28;5055631;28;20211;-71
2021/04/09 03:20:39;;;;;;;11.83;6.17;;;;;;;-1.73;94.46;96558.78;5054412;28;20382;-71
2021/04/09 03:23:05;;;;;;;14.60;6.30;;;;;;;-1.71;93.74;96549.97;5055108;28;20204;-72
2021/04/09 03:25:32;;;;;;;15.63;6.50;;;;;;;-1.77;93.13;96557.28;5054204;28;20399;-72
2021/04/09 03:27:58;;;;;;;11.97;6.50;;;;;;;-1.89;94.68;96555.47;5055448;28;20200;-71
2021/04/09 03:30:26;;;;;;;13.40;6.07;;;;;;;-1.91;95.38;96553.91;5055429;28;20209;-69
2021/04/09 03:32:52;;;;;;;16.50;6.37;;;;;;;-1.93;96.27;96550.63;5055725;28;20204;-70
2021/04/09 03:35:19;;;;;;;12.63;6.17;;;;;;;-1.82;96.41;96543.81;5055795;28;21303;-72
2021/04/09 03:37:46;;;;;;;16.23;6.57;;;;;;;-1.67;95.41;96542.88;5059059;28;20192;-71
2021/04/09 03:40:13;;;;;;;14.13;6.37;;;;;;;-1.68;94.45;96539.47;5058639;28;20202;-71
2021/04/09 03:42:39;;;;;;;10.03;5.90;;;;;;;-1.77;94.59;96534.91;5059058;28;20212;-71
2021/04/09 03:45:07;;;;;;;14.33;6.40;;;;;;;-1.70;93.48;96540.50;5057762;28;20224;-69
2021/04/09 03:47:33;;;;;;;16.53;6.50;;;;;;;-1.77;92.88;96529.72;5058466;28;20216;-71
2021/04/09 03:50:00;;;;;;;14.33;6.40;;;;;;;-1.77;94.45;96534.03;5058953;28;20662;-69
2021/04/09 03:52:26;;;;;;;15.37;6.40;;;;;;;-1.86;93.77;96539.78;5058609;28;20224;-73
2021/04/09 03:54:52;;;;;;;14.37;6.33;;;;;;;-1.87;95.11;96543.31;5057934;28;20217;-72
2021/04/09 03:57:19;;;;;;;11.77;6.20;;;;;;;-1.85;96.53;96536.28;5057856;28;20208;-70
2021/04/09 03:59:45;;;;;;;11.67;6.60;;;;;;;-2.03;94.84;96547.75;5058788;28;20200;-69
2021/04/09 04:02:11;;;;;;;14.90;5.80;;;;;;;-2.16;94.21;96539.09;5058388;28;20701;-71
2021/04/09 04:04:37;;;;;;;12.60;6.37;;;;;;;-2.24;94.60;96543.06;5059165;28;20204;-72
2021/04/09 04:07:04;;;;;;;12.27;6.60;;;;;;;-2.15;94.50;96550.25;5056863;28;20211;-72
2021/04/09 04:09:30;;;;;;;19.97;6.83;;;;;;;-2.24;95.58;96537.91;5058096;28;20207;-72
2021/04/09 04:11:56;;;;;;;15.80;6.80;;;;;;;-2.22;96.40;96539.47;5059189;28;20233;-69
2021/04/09 04:14:22;;;;;;;13.97;6.50;;;;;;;-2.21;96.74;96538.56;5058760;28;20259;-69
2021/04/09 04:16:48;;;;;;;14.43;6.33;;;;;;;-2.15;96.89;96533.03;5058314;28;20221;-70
2021/04/09 04:19:17;;;;;;;16.37;6.20;;;;;;;-1.98;95.04;96539.75;5057858;28;20201;-71
2021/04/09 04:21:43;;;;;;;22.90;7.03;;;;;;;-2.10;93.80;96546.47;5058439;28;20551;-70
2021/04/09 04:24:10;;;;;;;13.70;6.83;;;;;;;-2.03;95.15;96537.44;5058889;28;20207;-69
2021/04/09 04:26:36;;;;;;;16.13;7.10;;;;;;;-1.93;95.42;96540.28;5057003;28;20227;-69
2021/04/09 04:29:03;;;;;;;17.87;6.80;;;;;;;-2.00;95.66;96534.66;5058356;28;20467;-70
2021/04/09 04:31:29;;;;;;;12.70;6.13;;;;;;;-1.93;95.17;96538.53;5058589;28;20227;-69
2021/04/09 04:33:55;;;;;;;17.10;7.97;;;;;;;-1.96;95.96;96533.56;5057572;28;20252;-69
2021/04/09 04:36:22;;;;;;;22.23;8.53;;;;;;;-1.85;96.35;96533.69;5057513;28;21125;-72
2021/04/09 04:38:48;;;;;;;18.57;8.97;;;;;;;-1.78;96.63;96532.41;5058290;28;21008;-72
2021/04/09 04:41:17;;;;;;;17.00;7.57;;;;;;;-1.70;95.98;96533.56;5058235;28;20467;-70
2021/04/09 04:43:43;;;;;;;21.47;7.43;;;;;;;-1.77;97.28;96534.03;5058089;28;20281;-70
2021/04/09 04:46:09;;;;;;;13.53;7.30;;;;;;;-1.70;96.32;96535.34;5056732;28;20514;-72
2021/04/09 04:48:35;;;;;;;19.80;7.17;;;;;;;-1.54;100.00;96541.19;5056851;28;20624;-69
2021/04/09 04:51:01;;;;;;;17.37;8.73;;;;;;;-1.42;100.00;96540.41;5057653;28;20216;-71
2021/04/09 04:53:27;;;;;;;19.53;8.37;;;;;;;-1.36;100.00;96540.00;5057663;28;20271;-70
2021/04/09 04:55:53;;;;;;;16.10;6.97;;;;;;;-1.29;99.07;96530.94;5056797;28;20616;-73
2021/04/09 04:58:20;;;;;;;15.53;6.90;;;;;;;-1.28;97.68;96533.41;5057346;28;20204;-70
2021/04/09 05:00:46;;;;;;;18.70;7.07;;;;;;;-1.24;96.88;96534.88;5057806;28;20470;-69
2021/04/09 05:03:12;;;;;;;16.27;7.13;;;;;;;-1.23;97.45;96527.94;5057954;28;20776;-72
2021/04/09 05:05:38;;;;;;;18.00;8.00;;;;;;;-1.21;97.97;96526.91;5055937;28;20221;-71
2021/04/09 05:08:05;;;;;;;16.47;7.57;;;;;;;-1.26;98.26;96531.56;5058250;28;20208;-70
2021/04/09 05:10:31;;;;;;;15.03;7.47;;;;;;;-1.28;99.17;96533.41;5057321;28;20208;-70
2021/04/09 05:12:57;;;;;;;18.17;7.17;;;;;;;-1.23;99.40;96537.34;5057215;28;20221;-72
2021/04/09 05:15:24;;;;;;;18.00;7.57;;;;;;;-1.19;99.60;96528.47;5056786;28;20874;-72
2021/04/09 05:17:50;;;;;;;22.17;7.50;;;;;;;-1.04;98.55;96537.81;5056920;28;20205;-70
2021/04/09 05:20:16;;;;;;;15.83;7.47;;;;;;;-1.23;99.30;96536.53;5056794;28;20200;-73
2021/04/09 05:22:42;;;;;;;13.50;7.70;;;;;;;-1.06;99.60;96534.53;5058219;28;20197;-70
2021/04/09 05:25:09;;;;;;;17.50;8.43;;;;;;;-0.93;99.63;96529.34;5056506;28;20273;-70
2021/04/09 05:27:35;;;;;;;22.10;7.93;;;;;;;-0.84;98.78;96526.16;5056800;28;20563;-74
2021/04/09 05:30:01;;;;;;;14.13;7.50;;;;;;;-0.76;97.85;96524.72;5057136;28;20208;-70
2021/04/09 05:32:28;;;;;;;14.13;7.50;;;;;;;-0.73;98.45;96532.28;5056909;28;20307;-73
2021/04/09 05:34:54;;;;;;;14.53;7.30;;;;;;;-0.61;98.98;96526.28;5058006;28;20217;-75
2021/04/09 05:37:20;;;;;;;15.50;6.90;;;;;;;-0.64;98.89;96534.25;5057011;28;20210;-70
2021/04/09 05:39:47;;;;;;;13.93;7.07;;;;;;;-0.53;99.45;96527.41;5056594;28;20391;-71
2021/04/09 05:42:13;;;;;;;16.40;7.57;;;;;;;-0.41;99.11;96530.94;5057768;28;20201;-69
2021/04/09 05:44:40;;;;;;;16.37;7.80;;;;;;;-0.39;99.01;96524.72;5056420;28;20371;-68
2021/04/09 05:47:08;;;;;;;14.30;7.40;;;;;;;-0.33;98.66;96526.06;5055554;28;20236;-72
2021/04/09 05:49:35;;;;;;;15.70;6.70;;;;;;;-0.21;98.58;96525.25;5056650;28;20626;-71
2021/04/09 05:52:02;;;;;;;15.77;6.90;;;;;;;-0.10;98.65;96522.72;5055865;28;20233;-72
2021/04/09 05:54:28;;;;;;;15.87;7.00;;;;;;;0.02;97.82;96514.94;5057025;28;20514;-71
2021/04/09 05:56:54;;;;;;;15.30;7.77;;;;;;;0.13;96.42;96515.84;5055294;28;20985;-73
2021/04/09 05:59:20;;;;;;;21.33;7.87;;;;;;;0.21;96.56;96510.13;5056149;28;20205;-70
2021/04/09 06:01:46;;;;;;;17.27;7.67;;;;;;;0.28;96.65;96513.91;5055836;28;20202;-69
2021/04/09 06:04:12;;;;;;;24.90;8.27;;;;;;;0.39;96.44;96507.03;5056629;28;20698;-69
2021/04/09 06:06:39;;;;;;;15.73;7.77;;;;;;;0.50;96.43;96508.84;5055776;28;20231;-74
2021/04/09 06:09:05;;;;;;;20.93;8.50;;;;;;;0.55;95.77;96510.19;5057075;28;20205;-72
2021/04/09 06:11:32;;;;;;;20.03;8.23;;;;;;;0.47;95.27;96507.34;5056555;28;20234;-69
2021/04/09 06:13:58;;;;;;;19.33;7.80;;;;;;;0.54;96.07;96507.72;5056539;28;20216;-71
2021/04/09 06:16:24;;;;;;;20.47;7.77;;;;;;;0.63;96.57;96511.28;5055457;28;20619;-69
2021/04/09 06:18:50;;;;;;;14.03;6.80;;;;;;;0.67;96.33;96507.53;5056981;28;20219;-69
2021/04/09 06:21:16;;;;;;;19.30;6.83;;;;;;;0.82;95.56;96500.41;5056990;28;20211;-69
2021/04/09 06:23:43;;;;;;;20.17;7.53;;;;;;;0.99;95.88;96507.78;5056824;28;20207;-68
2021/04/09 06:26:09;;;;;;;12.93;6.43;;;;;;;1.15;96.13;96510.91;5055169;28;20227;-73
2021/04/09 06:28:35;;;;;;;14.93;6.23;;;;;;;1.22;94.42;96502.53;5054170;28;20708;-69
2021/04/09 06:31:01;;;;;;;15.83;6.43;;;;;;;1.25;91.94;96500.53;5054950;28;21180;-74
2021/04/09 06:33:27;;;;;;;12.77;5.87;;;;;;;1.39;89.77;96499.53;5054922;28;20763;-72
2021/04/09 06:35:53;;;;;;;10.27;5.30;;;;;;;1.49;89.22;96493.50;5053960;28;20228;-69
2021/04/09 06:38:19;;;;;;;13.70;5.40;;;;;;;1.58;89.47;96495.41;5055219;28;20281;-72
2021/04/09 06:40:46;;;;;;;10.90;4.53;;;;;;;1.66;87.04;96495.63;5056132;28;20618;-72
2021/04/09 06:43:12;;;;;;;13.60;4.80;;;;;;;1.76;86.27;96495.75;5054137;28;20212;-72
2021/04/09 06:45:39;;;;;;;13.03;5.57;;;;;;;1.86;86.82;96497.53;5054804;28;20220;-68
2021/04/09 06:48:06;;;;;;;11.90;4.83;;;;;;;2.46;93.92;96503.97;5054602;28;20239;-69
2021/04/09 06:50:32;;;;;;;11.67;5.50;;;;;;;2.83;84.18;96498.28;5054974;28;20219;-70
2021/04/09 06:52:58;;;;;;;8.50;5.10;;;;;;;3.08;88.08;96492.72;5053153;28;20228;-73
2021/04/09 06:55:25;;;;;;;10.13;4.50;;;;;;;3.03;82.22;96487.91;5055101;28;20224;-70
2021/04/09 06:57:52;;;;;;;11.37;5.43;;;;;;;2.99;82.87;96488.25;5054342;28;20200;-68
2021/04/09 07:00:22;;;;;;;14.80;5.80;;;;;;;3.15;83.53;96481.69;5055961;28;20227;-68
2021/04/09 07:02:48;;;;;;;14.23;5.55;;;;;;;3.67;80.23;96479.81;5054839;28;20500;-69
2021/04/09 07:05:15;;;;;;;12.73;6.17;;;;;;;3.65;79.92;96479.13;5054759;28;20239;-69
2021/04/09 07:07:41;;;;;;;10.77;6.10;;;;;;;3.73;79.99;96475.88;5055802;28;20208;-71
2021/04/09 07:10:09;;;;;;;10.70;5.90;;;;;;;3.77;79.90;96477.25;5056416;28;20251;-70
2021/04/09 07:12:36;;;;;;;11.23;5.50;;;;;;;3.76;77.13;96481.63;5058698;28;20220;-69
2021/04/09 07:15:06;;;;;;;14.80;6.07;;;;;;;3.78;76.60;96474.53;5058644;28;20227;-73
2021/04/09 07:17:33;;;;;;;97.57;40.07;;;;;;;3.82;77.78;96472.50;5060356;28;20306;-69
2021/04/09 07:20:14;;;;;;;23.67;12.40;;;;;;;3.94;77.95;96474.84;5059886;28;20856;-69
2021/04/09 07:22:41;;;;;;;19.97;11.23;;;;;;;3.98;77.57;96471.03;5060075;28;20200;-68
2021/04/09 07:25:11;;;;;;;16.33;5.13;;;;;;;4.08;76.30;96466.69;5058090;28;20235;-71
2021/04/09 07:27:38;;;;;;;15.50;9.30;;;;;;;4.14;77.14;96466.16;5056472;28;20599;-71
2021/04/09 07:30:07;;;;;;;8.97;5.20;;;;;;;4.28;76.83;96473.59;5056281;28;20212;-69
2021/04/09 07:32:35;;;;;;;14.17;4.83;;;;;;;4.39;76.43;96457.81;5057524;28;20478;-74
2021/04/09 07:35:06;;;;;;;11.10;6.20;;;;;;;4.51;76.10;96456.78;5056658;28;20216;-73
2021/04/09 07:37:47;;;;;;;8.80;5.57;;;;;;;4.65;76.46;96454.59;5056659;28;20200;-69
2021/04/09 07:40:15;;;;;;;9.13;4.33;;;;;;;5.00;73.26;96450.47;5057709;28;20227;-73
2021/04/09 07:42:42;;;;;;;12.00;5.33;;;;;;;5.12;73.54;96445.94;5058836;28;20207;-71
2021/04/09 07:45:11;;;;;;;8.40;4.40;;;;;;;5.38;71.49;96453.03;5059017;28;20220;-71
2021/04/09 07:47:39;;;;;;;9.30;4.20;;;;;;;5.44;69.13;96447.25;5057972;28;20230;-71
2021/04/09 07:50:08;;;;;;;10.63;4.63;;;;;;;5.62;68.95;96442.94;5057400;28;20984;-72
2021/04/09 07:52:43;;;;;;;15.57;5.80;;;;;;;5.81;69.42;96442.91;5056862;28;20232;-69
2021/04/09 07:55:18;;;;;;;8.73;4.63;;;;;;;5.93;68.77;96445.22;5056846;28;20224;-71
2021/04/09 07:57:45;;;;;;;8.60;4.20;;;;;;;6.04;68.18;96436.34;5057939;28;20265;-71
2021/04/09 08:00:21;;;;;;;11.47;4.20;;;;;;;6.10;68.16;96436.59;5058161;28;20192;-73
2021/04/09 08:02:47;;;;;;;7.97;4.17;;;;;;;6.38;65.08;96440.84;5058132;28;20192;-72
2021/04/09 08:05:16;;;;;;;8.03;3.90;;;;;;;6.66;64.20;96428.38;5057412;28;20221;-68
2021/04/09 08:07:42;;;;;;;10.33;4.00;;;;;;;6.91;62.02;96432.91;5058286;28;20956;-70
2021/04/09 08:10:10;;;;;;;9.07;4.10;;;;;;;7.20;61.14;96427.41;5057909;28;20219;-69
2021/04/09 08:12:38;;;;;;;8.77;3.73;;;;;;;7.39;59.30;96423.59;5057727;28;20228;-73
2021/04/09 08:15:20;;;;;;;6.43;3.30;;;;;;;7.49;57.74;96421.72;5057136;28;20293;-70
2021/04/09 08:17:57;;;;;;;6.97;3.47;;;;;;;7.70;59.00;96419.56;5058908;28;20196;-71
2021/04/09 08:20:24;;;;;;;8.83;4.20;;;;;;;7.78;59.19;96419.63;5057128;28;20697;-72
2021/04/09 08:22:51;;;;;;;7.07;4.03;;;;;;;7.90;57.95;96421.81;5058016;28;20196;-71
2021/04/09 08:25:18;;;;;;;11.30;4.80;;;;;;;8.12;56.29;96415.19;5057562;28;20270;-68
2021/04/09 08:27:44;;;;;;;14.43;5.87;;;;;;;8.20;56.41;96415.25;5057441;28;21082;-73
2021/04/09 08:30:12;;;;;;;12.00;4.90;;;;;;;8.51;56.30;96411.91;5057415;28;20196;-69
2021/04/09 08:32:38;;;;;;;10.23;4.00;;;;;;;8.61;54.65;96410.78;5058260;28;20224;-73
2021/04/09 08:35:08;;;;;;;6.20;3.50;;;;;;;8.64;54.90;96407.84;5057380;28;20749;-68
2021/04/09 08:37:35;;;;;;;7.37;3.80;;;;;;;8.68;54.92;96403.91;5058295;28;20286;-72
2021/04/09 08:40:03;;;;;;;9.40;4.03;;;;;;;8.82;53.72;96405.91;5058057;28;20200;-72
2021/04/09 08:42:32;;;;;;;13.30;4.10;;;;;;;8.97;53.43;96404.25;5057192;28;20203;-69
2021/04/09 08:45:00;;;;;;;11.50;3.17;;;;;;;9.12;51.47;96398.19;5057645;28;20286;-69
2021/04/09 08:47:28;;;;;;;7.20;3.27;;;;;;;9.36;50.35;96397.38;5059003;28;20235;-69
2021/04/09 08:49:55;;;;;;;11.40;5.40;;;;;;;9.41;48.64;96393.25;5058233;28;20208;-72
2021/04/09 08:52:21;;;;;;;12.77;4.03;;;;;;;9.57;49.97;96385.38;5057728;28;20520;-72
2021/04/09 08:54:51;;;;;;;6.70;3.10;;;;;;;9.97;48.78;96395.81;5058230;28;20208;-71
2021/04/09 08:57:31;;;;;;;8.77;3.13;;;;;;;10.36;46.98;96387.75;5057757;28;20205;-68
2021/04/09 09:00:09;;;;;;;7.93;3.10;;;;;;;10.58;46.42;96381.69;5058368;28;20283;-68
2021/04/09 09:02:40;;;;;;;5.77;2.80;;;;;;;10.92;43.71;96384.78;5058338;28;20704;-70
2021/04/09 09:05:09;;;;;;;5.50;2.70;;;;;;;10.92;42.78;96378.69;5057341;28;20940;-73
2021/04/09 09:07:53;;;;;;;7.27;2.87;;;;;;;11.04;42.24;96373.63;5057163;28;20218;-69
2021/04/09 09:10:47;;;;;;;9.40;3.40;;;;;;;11.05;41.15;96375.28;5056892;28;20209;-69
2021/04/09 09:13:29;;;;;;;7.30;3.30;;;;;;;11.17;41.26;96360.66;5057472;28;20600;-72
2021/04/09 09:15:57;;;;;;;7.83;3.30;;;;;;;11.41;40.13;96370.22;5056879;28;20236;-68
2021/04/09 09:18:50;;;;;;;6.43;3.20;;;;;;;11.40;39.50;96369.38;5057014;28;20476;-71
2021/04/09 09:21:39;;;;;;;9.33;3.13;;;;;;;11.46;40.90;96363.41;5057513;28;20211;-70
2021/04/09 09:24:18;;;;;;;8.33;3.00;;;;;;;11.54;37.99;96365.19;5057211;28;20212;-70
2021/04/09 09:26:45;;;;;;;6.00;2.85;;;;;;;11.76;39.19;96359.81;5055921;28;20219;-71
2021/04/09 09:29:17;;;;;;;6.75;2.47;;;;;;;11.82;38.00;96351.97;5056956;28;20355;-72
2021/04/09 09:31:54;;;;;;;7.33;3.10;;;;;;;12.18;39.07;96351.06;5057214;28;21243;-70
2021/04/09 09:34:41;;;;;;;9.97;3.00;;;;;;;12.02;37.53;96344.34;5057259;28;20240;-72
2021/04/09 09:37:11;;;;;;;5.50;2.88;;;;;;;12.16;37.87;96339.06;5056716;28;20201;-70
2021/04/09 09:39:40;;;;;;;9.52;3.40;;;;;;;12.12;38.31;96351.00;5056521;28;20718;-69
2021/04/09 09:42:09;;;;;;;6.15;3.30;;;;;;;12.27;37.94;96347.34;5056534;28;20205;-70
2021/04/09 09:44:43;;;;;;;5.60;2.90;;;;;;;12.18;37.50;96340.50;5055502;28;20205;-70
2021/04/09 09:47:19;;;;;;;5.47;2.42;;;;;;;12.23;37.85;96337.31;5055465;28;20207;-68
2021/04/09 09:50:18;;;;;;;5.03;3.08;;;;;;;12.36;38.74;96338.28;5056277;28;20204;-69
2021/04/09 09:52:47;;;;;;;5.53;3.00;;;;;;;12.53;38.67;96331.78;5053136;28;20884;-69
2021/04/09 09:55:15;;;;;;;5.32;2.90;;;;;;;12.68;38.98;96329.09;5053319;28;20235;-71
2021/04/09 09:57:47;;;;;;;8.13;3.20;;;;;;;12.55;38.45;96326.28;5056966;28;20208;-69
2021/04/09 10:00:24;;;;;;;4.97;2.33;;;;;;;12.53;38.78;96323.84;5056918;28;20220;-69
2021/04/09 10:02:50;;;;;;;7.38;3.10;;;;;;;12.41;39.37;96325.34;5056091;28;20192;-68
2021/04/09 10:05:17;;;;;;;4.38;2.95;;;;;;;12.43;40.29;96317.22;5055932;28;20232;-72
2021/04/09 10:07:44;;;;;;;7.65;3.20;;;;;;;12.72;39.81;96317.16;5057143;28;20217;-68
2021/04/09 10:10:12;;;;;;;8.30;4.97;;;;;;;12.74;40.08;96312.47;5056746;28;20219;-69
2021/04/09 10:12:38;;;;;;;5.75;2.85;;;;;;;12.80;39.82;96315.19;5056206;28;20604;-69
2021/04/09 10:15:05;;;;;;;4.85;3.08;;;;;;;12.66;39.26;96323.97;5055994;28;20232;-68
2021/04/09 10:17:31;;;;;;;7.97;3.58;;;;;;;12.63;39.54;96311.16;5056673;28;20200;-68
2021/04/09 10:19:58;;;;;;;6.75;3.22;;;;;;;12.60;40.82;96308.06;5056337;28;20296;-70
2021/04/09 10:22:24;;;;;;;9.98;3.90;;;;;;;12.52;40.23;96300.25;5057187;28;20208;-72
2021/04/09 10:24:50;;;;;;;10.23;4.00;;;;;;;12.57;41.35;96298.69;5055979;28;20216;-68
2021/04/09 10:27:17;;;;;;;8.75;4.13;;;;;;;12.65;40.26;96297.75;5055985;28;20593;-69
2021/04/09 10:29:43;;;;;;;7.78;3.55;;;;;;;12.83;40.66;96298.97;5056715;28;20409;-70
2021/04/09 10:32:15;;;;;;;8.48;3.33;;;;;;;12.99;41.03;96299.53;5056718;28;20698;-69
2021/04/09 10:34:41;;;;;;;4.40;2.45;;;;;;;13.08;39.92;96298.38;5055825;28;20204;-70
2021/04/09 10:37:07;;;;;;;6.13;3.30;;;;;;;13.17;40.65;96291.13;5056160;28;20207;-69
2021/04/09 10:39:34;;;;;;;8.10;3.33;;;;;;;13.24;40.36;96287.53;5056393;28;20238;-72
2021/04/09 10:42:02;;;;;;;5.07;2.55;;;;;;;13.12;39.70;96280.31;5056750;28;20204;-70
2021/04/09 10:44:31;;;;;;;8.32;3.30;;;;;;;13.24;39.56;96276.97;5055131;28;20201;-71
2021/04/09 10:46:59;;;;;;;9.95;4.30;;;;;;;13.52;40.71;96275.94;5056048;28;20220;-72
2021/04/09 10:49:26;;;;;;;11.90;3.60;;;;;;;13.95;39.40;96271.28;5055476;28;20872;-69
2021/04/09 10:51:54;;;;;;;7.70;3.70;;;;;;;14.17;38.76;96263.06;5055593;28;20227;-69
2021/04/09 10:54:22;;;;;;;4.72;2.78;;;;;;;14.00;37.98;96259.91;5053658;28;21144;-72
2021/04/09 10:56:53;;;;;;;6.85;3.67;;;;;;;13.84;38.82;96264.72;5055568;28;20216;-70
2021/04/09 10:59:21;;;;;;;12.68;4.43;;;;;;;14.31;38.76;96273.50;5055379;28;20211;-72
2021/04/09 11:01:48;;;;;;;9.35;5.32;;;;;;;14.08;35.96;96257.13;5052836;28;20231;-69
2021/04/09 11:04:15;;;;;;;8.50;3.83;;;;;;;14.04;37.83;96257.69;5055535;28;20690;-69
2021/04/09 11:06:51;;;;;;;5.65;3.00;;;;;;;14.06;36.70;96248.53;5055245;28;20220;-73
2021/04/09 11:09:17;;;;;;;6.43;3.13;;;;;;;14.32;37.63;96246.00;5054795;28;20215;-68
2021/04/09 11:11:44;;;;;;;6.22;3.30;;;;;;;14.24;34.91;96255.94;5055487;28;20232;-71
2021/04/09 11:14:12;;;;;;;5.05;2.72;;;;;;;14.24;35.55;96248.00;5054907;28;20686;-73
2021/04/09 11:16:56;;;;;;;6.20;2.80;;;;;;;14.20;34.07;96238.81;5053425;28;20881;-69
2021/04/09 11:19:32;;;;;;;4.88;2.88;;;;;;;14.12;33.96;96252.25;5053985;28;20556;-68
2021/04/09 11:22:01;;;;;;;10.02;2.92;;;;;;;14.28;34.24;96241.28;5054242;28;20204;-72
2021/04/09 11:24:30;;;;;;;8.18;3.03;;;;;;;14.49;34.40;96235.84;5054811;28;20574;-68
2021/04/09 11:26:57;;;;;;;5.22;1.95;;;;;;;14.38;31.28;96244.38;5053735;28;20318;-72
2021/04/09 11:29:27;;;;;;;7.78;2.20;;;;;;;14.33;31.22;96233.53;5055109;28;20231;-70
2021/04/09 11:32:08;;;;;;;4.75;2.13;;;;;;;14.44;32.84;96240.94;5055349;28;20224;-71
2021/04/09 11:34:36;;;;;;;6.28;2.55;;;;;;;14.47;31.92;96229.91;5054631;28;20234;-70